CHH7353 ZJSY-ZGHA
Flight info
| Callsign | CHH7353 |
|---|---|
| Flight time | 1h 36m |
| Altitude | 26600 |
| Route | PORAP2Q PORAP W222 NUMKU W223 AGTEL W71 LH R339 BHY W159 IVPUB W120 ENKUS R343 AVNEL W618 SEBMO W227 RUKLI RUK2X |
| Aircraft | B738/M-SDE2E3FGHIRWXY/LB1 |
Departure
| Time | 2026-04-20 20:04 |
|---|---|
| Airport | Sanya Phoenix International Airport (ZJSY) |
Arrival
| Time | 2026-04-20 21:41 |
|---|---|
| Airport | Changsha Huanghua International Airport (ZGHA) |
| Time | Latitude | Longitude | Altitude | Speed | Heading |
|---|---|---|---|---|---|
| 2026-04-20 19:46 | 18.30832 | 109.40849 | 86 ft | 0 kts | 351° |
| 2026-04-20 19:56 | 18.30811 | 109.40853 | 87 ft | 4 kts | 351° |
| 2026-04-20 19:57 | 18.30785 | 109.40857 | 87 ft | 4 kts | 347° |
| 2026-04-20 19:57 | 18.30760 | 109.40866 | 85 ft | 4 kts | 327° |
| 2026-04-20 19:57 | 18.30742 | 109.40884 | 87 ft | 4 kts | 281° |
| 2026-04-20 19:57 | 18.30743 | 109.40905 | 87 ft | 4 kts | 262° |
| 2026-04-20 19:58 | 18.30744 | 109.40919 | 86 ft | 0 kts | 262° |
| 2026-04-20 20:00 | 18.30742 | 109.40895 | 86 ft | 10 kts | 262° |
| 2026-04-20 20:00 | 18.30728 | 109.40818 | 84 ft | 11 kts | 238° |
| 2026-04-20 20:00 | 18.30660 | 109.40796 | 86 ft | 11 kts | 176° |
| 2026-04-20 20:00 | 18.30569 | 109.40808 | 85 ft | 19 kts | 172° |
| 2026-04-20 20:01 | 18.30433 | 109.40827 | 85 ft | 17 kts | 172° |
| 2026-04-20 20:01 | 18.30403 | 109.40820 | 86 ft | 3 kts | 249° |
| 2026-04-20 20:01 | 18.30404 | 109.40763 | 83 ft | 17 kts | 268° |
| 2026-04-20 20:01 | 18.30378 | 109.40557 | 82 ft | 42 kts | 262° |
| 2026-04-20 20:02 | 18.30338 | 109.40241 | 83 ft | 42 kts | 261° |
| 2026-04-20 20:02 | 18.30299 | 109.39947 | 88 ft | 39 kts | 262° |
| 2026-04-20 20:02 | 18.30270 | 109.39719 | 86 ft | 17 kts | 263° |
| 2026-04-20 20:02 | 18.30216 | 109.39637 | 84 ft | 14 kts | 195° |
| 2026-04-20 20:03 | 18.30171 | 109.39634 | 89 ft | 3 kts | 172° |
| 2026-04-20 20:03 | 18.30116 | 109.39642 | 88 ft | 14 kts | 171° |
| 2026-04-20 20:03 | 18.30087 | 109.39676 | 85 ft | 5 kts | 83° |
| 2026-04-20 20:03 | 18.30093 | 109.39706 | 85 ft | 8 kts | 81° |
| 2026-04-20 20:04 | 18.30140 | 109.40067 | 85 ft | 93 kts | 82° |
| 2026-04-20 20:04 | 18.30270 | 109.41017 | 85 ft | 167 kts | 79° |
| 2026-04-20 20:04 | 18.30460 | 109.42386 | 468 ft | 205 kts | 82° |
| 2026-04-20 20:04 | 18.30677 | 109.43929 | 1213 ft | 216 kts | 84° |
| 2026-04-20 20:05 | 18.30887 | 109.45426 | 2286 ft | 210 kts | 86° |
| 2026-04-20 20:05 | 18.31079 | 109.47016 | 2605 ft | 230 kts | 85° |
| 2026-04-20 20:05 | 18.31293 | 109.48734 | 3021 ft | 240 kts | 86° |
| 2026-04-20 20:05 | 18.31762 | 109.50441 | 3535 ft | 252 kts | 58° |
| 2026-04-20 20:06 | 18.33111 | 109.51635 | 4126 ft | 259 kts | 31° |
| 2026-04-20 20:06 | 18.34694 | 109.52554 | 4707 ft | 261 kts | 30° |
| 2026-04-20 20:06 | 18.36293 | 109.53488 | 5244 ft | 264 kts | 30° |
| 2026-04-20 20:06 | 18.37902 | 109.54451 | 5772 ft | 266 kts | 31° |
| 2026-04-20 20:07 | 18.39518 | 109.55436 | 6344 ft | 269 kts | 31° |
| 2026-04-20 20:07 | 18.41140 | 109.56439 | 6897 ft | 273 kts | 31° |
| 2026-04-20 20:07 | 18.42787 | 109.57468 | 7462 ft | 277 kts | 30° |
| 2026-04-20 20:07 | 18.44445 | 109.58511 | 8145 ft | 278 kts | 30° |
| 2026-04-20 20:08 | 18.46107 | 109.59559 | 8817 ft | 280 kts | 30° |
| 2026-04-20 20:08 | 18.47793 | 109.60624 | 9450 ft | 284 kts | 30° |
| 2026-04-20 20:08 | 18.49483 | 109.61664 | 10057 ft | 288 kts | 26° |
| 2026-04-20 20:08 | 18.51337 | 109.62610 | 10316 ft | 306 kts | 23° |
| 2026-04-20 20:09 | 18.53350 | 109.63552 | 10473 ft | 327 kts | 22° |
| 2026-04-20 20:09 | 18.55499 | 109.64547 | 10631 ft | 346 kts | 22° |
| 2026-04-20 20:09 | 18.57767 | 109.65605 | 10770 ft | 365 kts | 22° |
| 2026-04-20 20:09 | 18.60142 | 109.66726 | 10896 ft | 381 kts | 23° |
| 2026-04-20 20:10 | 18.62598 | 109.67895 | 11165 ft | 391 kts | 23° |
| 2026-04-20 20:10 | 18.65087 | 109.69087 | 11640 ft | 394 kts | 23° |
| 2026-04-20 20:10 | 18.67552 | 109.70270 | 12189 ft | 394 kts | 23° |
| 2026-04-20 20:10 | 18.70054 | 109.71471 | 12724 ft | 395 kts | 23° |
| 2026-04-20 20:11 | 18.72562 | 109.72675 | 13220 ft | 398 kts | 23° |
| 2026-04-20 20:11 | 18.75130 | 109.73907 | 13623 ft | 402 kts | 23° |
| 2026-04-20 20:11 | 18.77683 | 109.75133 | 14101 ft | 403 kts | 22° |
| 2026-04-20 20:11 | 18.80206 | 109.76343 | 14525 ft | 405 kts | 22° |
| 2026-04-20 20:12 | 18.82776 | 109.77575 | 14926 ft | 407 kts | 23° |
| 2026-04-20 20:12 | 18.85354 | 109.78811 | 15349 ft | 408 kts | 22° |
| 2026-04-20 20:12 | 18.87946 | 109.80055 | 15740 ft | 410 kts | 22° |
| 2026-04-20 20:13 | 18.93180 | 109.82569 | 16487 ft | 415 kts | 22° |
| 2026-04-20 20:13 | 18.95814 | 109.83836 | 16908 ft | 417 kts | 22° |
| 2026-04-20 20:13 | 18.98459 | 109.85108 | 17283 ft | 419 kts | 22° |
| 2026-04-20 20:13 | 19.01116 | 109.86387 | 17661 ft | 420 kts | 22° |
| 2026-04-20 20:14 | 19.03788 | 109.87672 | 18009 ft | 423 kts | 22° |
| 2026-04-20 20:14 | 19.06473 | 109.88965 | 18316 ft | 425 kts | 22° |
| 2026-04-20 20:14 | 19.08257 | 109.89824 | 18521 ft | 426 kts | 22° |
| 2026-04-20 20:14 | 19.10966 | 109.91129 | 18808 ft | 428 kts | 22° |
| 2026-04-20 20:15 | 19.13679 | 109.92437 | 19090 ft | 429 kts | 22° |
| 2026-04-20 20:15 | 19.17324 | 109.94195 | 19472 ft | 431 kts | 22° |
| 2026-04-20 20:15 | 19.19134 | 109.95067 | 19656 ft | 432 kts | 22° |
| 2026-04-20 20:15 | 19.21877 | 109.96391 | 19907 ft | 434 kts | 22° |
| 2026-04-20 20:16 | 19.24635 | 109.97722 | 20171 ft | 436 kts | 22° |
| 2026-04-20 20:16 | 19.27417 | 109.99027 | 20430 ft | 437 kts | 21° |
| 2026-04-20 20:16 | 19.30219 | 110.00292 | 20678 ft | 439 kts | 20° |
| 2026-04-20 20:16 | 19.33032 | 110.01560 | 20915 ft | 440 kts | 21° |
| 2026-04-20 20:17 | 19.35840 | 110.02884 | 21114 ft | 443 kts | 22° |
| 2026-04-20 20:17 | 19.38649 | 110.04244 | 21330 ft | 445 kts | 22° |
| 2026-04-20 20:17 | 19.41469 | 110.05623 | 21580 ft | 446 kts | 22° |
| 2026-04-20 20:17 | 19.44292 | 110.07003 | 21820 ft | 448 kts | 22° |
| 2026-04-20 20:18 | 19.47088 | 110.08366 | 22030 ft | 449 kts | 22° |
| 2026-04-20 20:18 | 19.49931 | 110.09748 | 22233 ft | 450 kts | 22° |
| 2026-04-20 20:18 | 19.52786 | 110.11132 | 22430 ft | 452 kts | 22° |
| 2026-04-20 20:18 | 19.55652 | 110.12519 | 22629 ft | 453 kts | 22° |
| 2026-04-20 20:19 | 19.58525 | 110.13910 | 22829 ft | 454 kts | 22° |
| 2026-04-20 20:19 | 19.61404 | 110.15304 | 23033 ft | 455 kts | 22° |
| 2026-04-20 20:19 | 19.64287 | 110.16701 | 23214 ft | 457 kts | 22° |
| 2026-04-20 20:19 | 19.67184 | 110.18105 | 23361 ft | 459 kts | 22° |
| 2026-04-20 20:20 | 19.70103 | 110.19515 | 23426 ft | 462 kts | 21° |
| 2026-04-20 20:20 | 19.73170 | 110.20483 | 23428 ft | 461 kts | 4° |
| 2026-04-20 20:20 | 19.76361 | 110.20404 | 23542 ft | 457 kts | 348° |
| 2026-04-20 20:20 | 19.79396 | 110.19494 | 23695 ft | 453 kts | 336° |
| 2026-04-20 20:21 | 19.82317 | 110.18234 | 23843 ft | 453 kts | 336° |
| 2026-04-20 20:21 | 19.85232 | 110.16961 | 23954 ft | 454 kts | 336° |
| 2026-04-20 20:21 | 19.88163 | 110.15686 | 24059 ft | 456 kts | 336° |
| 2026-04-20 20:21 | 19.91107 | 110.14417 | 24169 ft | 457 kts | 336° |
| 2026-04-20 20:22 | 19.94060 | 110.13159 | 24287 ft | 457 kts | 336° |
| 2026-04-20 20:22 | 19.97016 | 110.11914 | 24435 ft | 457 kts | 336° |
| 2026-04-20 20:22 | 19.99977 | 110.10669 | 24560 ft | 458 kts | 336° |
| 2026-04-20 20:22 | 20.02943 | 110.09425 | 24669 ft | 459 kts | 336° |
| 2026-04-20 20:23 | 20.05914 | 110.08178 | 24770 ft | 459 kts | 336° |
| 2026-04-20 20:23 | 20.08888 | 110.06926 | 24864 ft | 461 kts | 336° |
| 2026-04-20 20:23 | 20.11829 | 110.05686 | 24957 ft | 461 kts | 336° |
| 2026-04-20 20:23 | 20.14856 | 110.04408 | 25058 ft | 462 kts | 336° |
| 2026-04-20 20:24 | 20.17808 | 110.03165 | 25157 ft | 463 kts | 336° |
| 2026-04-20 20:24 | 20.20804 | 110.01902 | 25257 ft | 463 kts | 336° |
| 2026-04-20 20:24 | 20.23800 | 110.00638 | 25359 ft | 464 kts | 336° |
| 2026-04-20 20:24 | 20.26802 | 109.99371 | 25483 ft | 464 kts | 336° |
| 2026-04-20 20:25 | 20.29799 | 109.98106 | 25685 ft | 462 kts | 336° |
| 2026-04-20 20:25 | 20.32784 | 109.96846 | 25877 ft | 461 kts | 336° |
| 2026-04-20 20:25 | 20.35764 | 109.95588 | 25985 ft | 462 kts | 336° |
| 2026-04-20 20:25 | 20.38758 | 109.94322 | 26038 ft | 464 kts | 336° |
| 2026-04-20 20:26 | 20.41765 | 109.93051 | 26088 ft | 466 kts | 336° |
| 2026-04-20 20:26 | 20.44780 | 109.91776 | 26180 ft | 466 kts | 336° |
| 2026-04-20 20:26 | 20.47797 | 109.90499 | 26291 ft | 466 kts | 336° |
| 2026-04-20 20:26 | 20.50811 | 109.89225 | 26397 ft | 466 kts | 336° |
| 2026-04-20 20:27 | 20.53836 | 109.87945 | 26436 ft | 467 kts | 336° |
| 2026-04-20 20:27 | 20.56861 | 109.86663 | 26440 ft | 469 kts | 336° |
| 2026-04-20 20:27 | 20.59900 | 109.85375 | 26446 ft | 470 kts | 336° |
| 2026-04-20 20:27 | 20.62939 | 109.84088 | 26460 ft | 470 kts | 336° |
| 2026-04-20 20:28 | 20.65986 | 109.82811 | 26452 ft | 471 kts | 336° |
| 2026-04-20 20:28 | 20.69036 | 109.81523 | 26450 ft | 471 kts | 335° |
| 2026-04-20 20:28 | 20.72080 | 109.80225 | 26445 ft | 471 kts | 335° |
| 2026-04-20 20:28 | 20.75124 | 109.78924 | 26449 ft | 471 kts | 335° |
| 2026-04-20 20:29 | 20.78167 | 109.77626 | 26443 ft | 471 kts | 335° |
| 2026-04-20 20:29 | 20.81209 | 109.76330 | 26439 ft | 470 kts | 335° |
| 2026-04-20 20:29 | 20.84244 | 109.75039 | 26440 ft | 470 kts | 335° |
| 2026-04-20 20:29 | 20.87284 | 109.73746 | 26442 ft | 469 kts | 335° |
| 2026-04-20 20:30 | 20.90313 | 109.72457 | 26447 ft | 468 kts | 335° |
| 2026-04-20 20:30 | 20.93334 | 109.71172 | 26449 ft | 467 kts | 335° |
| 2026-04-20 20:30 | 20.96355 | 109.69885 | 26445 ft | 467 kts | 335° |
| 2026-04-20 20:30 | 20.99333 | 109.68617 | 26446 ft | 467 kts | 335° |
| 2026-04-20 20:31 | 21.02348 | 109.67331 | 26450 ft | 466 kts | 335° |
| 2026-04-20 20:31 | 21.05360 | 109.66047 | 26444 ft | 466 kts | 335° |
| 2026-04-20 20:31 | 21.08374 | 109.64761 | 26443 ft | 466 kts | 335° |
| 2026-04-20 20:31 | 21.11379 | 109.63478 | 26444 ft | 465 kts | 335° |
| 2026-04-20 20:32 | 21.14387 | 109.62193 | 26442 ft | 465 kts | 335° |
| 2026-04-20 20:32 | 21.17393 | 109.60905 | 26446 ft | 465 kts | 335° |
| 2026-04-20 20:32 | 21.20400 | 109.59620 | 26447 ft | 465 kts | 335° |
| 2026-04-20 20:32 | 21.23404 | 109.58337 | 26447 ft | 465 kts | 335° |
| 2026-04-20 20:33 | 21.26413 | 109.57051 | 26447 ft | 466 kts | 335° |
| 2026-04-20 20:33 | 21.29423 | 109.55763 | 26459 ft | 466 kts | 335° |
| 2026-04-20 20:33 | 21.32438 | 109.54472 | 26457 ft | 466 kts | 335° |
| 2026-04-20 20:33 | 21.35447 | 109.53183 | 26450 ft | 466 kts | 335° |
| 2026-04-20 20:34 | 21.38461 | 109.51891 | 26446 ft | 467 kts | 335° |
| 2026-04-20 20:34 | 21.41480 | 109.50597 | 26445 ft | 467 kts | 335° |
| 2026-04-20 20:34 | 21.44498 | 109.49299 | 26449 ft | 467 kts | 335° |
| 2026-04-20 20:34 | 21.47513 | 109.48004 | 26448 ft | 467 kts | 335° |
| 2026-04-20 20:35 | 21.50532 | 109.46710 | 26444 ft | 467 kts | 335° |
| 2026-04-20 20:35 | 21.53550 | 109.45415 | 26449 ft | 467 kts | 335° |
| 2026-04-20 20:35 | 21.56567 | 109.44123 | 26451 ft | 467 kts | 336° |
| 2026-04-20 20:35 | 21.59667 | 109.43048 | 26440 ft | 470 kts | 344° |
| 2026-04-20 20:36 | 21.62913 | 109.42506 | 26461 ft | 473 kts | 350° |
| 2026-04-20 20:36 | 21.66186 | 109.42119 | 26452 ft | 473 kts | 350° |
| 2026-04-20 20:36 | 21.69461 | 109.41743 | 26452 ft | 473 kts | 350° |
| 2026-04-20 20:36 | 21.72732 | 109.41358 | 26447 ft | 473 kts | 350° |
| 2026-04-20 20:37 | 21.75999 | 109.40957 | 26451 ft | 472 kts | 350° |
| 2026-04-20 20:37 | 21.79262 | 109.40544 | 26452 ft | 472 kts | 350° |
| 2026-04-20 20:37 | 21.82522 | 109.40124 | 26451 ft | 472 kts | 349° |
| 2026-04-20 20:37 | 21.85780 | 109.39701 | 26450 ft | 471 kts | 349° |
| 2026-04-20 20:38 | 21.89036 | 109.39277 | 26458 ft | 471 kts | 349° |
| 2026-04-20 20:38 | 21.92293 | 109.38853 | 26449 ft | 471 kts | 349° |
| 2026-04-20 20:38 | 21.95550 | 109.38430 | 26459 ft | 471 kts | 349° |
| 2026-04-20 20:38 | 21.98800 | 109.38008 | 26460 ft | 471 kts | 349° |
| 2026-04-20 20:39 | 22.02013 | 109.37591 | 26450 ft | 471 kts | 349° |
| 2026-04-20 20:39 | 22.05265 | 109.37169 | 26449 ft | 471 kts | 349° |
| 2026-04-20 20:39 | 22.08515 | 109.36747 | 26462 ft | 470 kts | 349° |
| 2026-04-20 20:39 | 22.11765 | 109.36325 | 26451 ft | 470 kts | 349° |
| 2026-04-20 20:40 | 22.15017 | 109.35902 | 26447 ft | 470 kts | 349° |
| 2026-04-20 20:40 | 22.18264 | 109.35481 | 26453 ft | 470 kts | 349° |
| 2026-04-20 20:40 | 22.21513 | 109.35059 | 26455 ft | 470 kts | 349° |
| 2026-04-20 20:40 | 22.24757 | 109.34637 | 26464 ft | 470 kts | 349° |
| 2026-04-20 20:41 | 22.28034 | 109.34392 | 26451 ft | 474 kts | 356° |
| 2026-04-20 20:41 | 22.31341 | 109.34682 | 26455 ft | 480 kts | 6° |
| 2026-04-20 20:41 | 22.34636 | 109.35338 | 26464 ft | 481 kts | 7° |
| 2026-04-20 20:41 | 22.37923 | 109.36031 | 26455 ft | 482 kts | 7° |
| 2026-04-20 20:42 | 22.41210 | 109.36720 | 26456 ft | 482 kts | 7° |
| 2026-04-20 20:42 | 22.44505 | 109.37395 | 26448 ft | 482 kts | 6° |
| 2026-04-20 20:42 | 22.47802 | 109.38056 | 26451 ft | 482 kts | 6° |
| 2026-04-20 20:42 | 22.51101 | 109.38706 | 26454 ft | 482 kts | 6° |
| 2026-04-20 20:43 | 22.54403 | 109.39352 | 26461 ft | 482 kts | 6° |
| 2026-04-20 20:43 | 22.57705 | 109.39998 | 26461 ft | 483 kts | 6° |
| 2026-04-20 20:43 | 22.60969 | 109.40637 | 26462 ft | 483 kts | 6° |
| 2026-04-20 20:43 | 22.64286 | 109.41287 | 26456 ft | 484 kts | 6° |
| 2026-04-20 20:44 | 22.67597 | 109.41937 | 26452 ft | 484 kts | 6° |
| 2026-04-20 20:44 | 22.70919 | 109.42590 | 26455 ft | 484 kts | 6° |
| 2026-04-20 20:44 | 22.74230 | 109.43241 | 26456 ft | 484 kts | 6° |
| 2026-04-20 20:44 | 22.77546 | 109.43896 | 26456 ft | 484 kts | 6° |
| 2026-04-20 20:45 | 22.80866 | 109.44554 | 26456 ft | 485 kts | 6° |
| 2026-04-20 20:45 | 22.84183 | 109.45212 | 26463 ft | 485 kts | 6° |
| 2026-04-20 20:45 | 22.87502 | 109.45870 | 26456 ft | 485 kts | 6° |
| 2026-04-20 20:45 | 22.90822 | 109.46531 | 26465 ft | 485 kts | 6° |
| 2026-04-20 20:46 | 22.94154 | 109.47193 | 26457 ft | 486 kts | 6° |
| 2026-04-20 20:46 | 22.97485 | 109.47854 | 26459 ft | 486 kts | 6° |
| 2026-04-20 20:46 | 23.00810 | 109.48514 | 26459 ft | 486 kts | 6° |
| 2026-04-20 20:46 | 23.04141 | 109.49176 | 26458 ft | 487 kts | 6° |
| 2026-04-20 20:47 | 23.07476 | 109.49840 | 26458 ft | 487 kts | 6° |
| 2026-04-20 20:47 | 23.10806 | 109.50502 | 26458 ft | 487 kts | 6° |
| 2026-04-20 20:47 | 23.14095 | 109.51157 | 26469 ft | 487 kts | 6° |
| 2026-04-20 20:47 | 23.17430 | 109.51822 | 26452 ft | 488 kts | 6° |
| 2026-04-20 20:48 | 23.20772 | 109.52487 | 26465 ft | 488 kts | 6° |
| 2026-04-20 20:48 | 23.24111 | 109.53153 | 26454 ft | 488 kts | 6° |
| 2026-04-20 20:48 | 23.27451 | 109.53820 | 26456 ft | 488 kts | 6° |
| 2026-04-20 20:48 | 23.30803 | 109.54490 | 26443 ft | 488 kts | 6° |
| 2026-04-20 20:49 | 23.34141 | 109.55157 | 26468 ft | 487 kts | 6° |
| 2026-04-20 20:49 | 23.37476 | 109.55824 | 26457 ft | 488 kts | 6° |
| 2026-04-20 20:49 | 23.40821 | 109.56492 | 26454 ft | 488 kts | 6° |
| 2026-04-20 20:49 | 23.44158 | 109.57159 | 26478 ft | 488 kts | 7° |
| 2026-04-20 20:50 | 23.47502 | 109.57829 | 26467 ft | 488 kts | 7° |
| 2026-04-20 20:50 | 23.50846 | 109.58499 | 26456 ft | 489 kts | 7° |
| 2026-04-20 20:50 | 23.54190 | 109.59169 | 26459 ft | 489 kts | 7° |
| 2026-04-20 20:50 | 23.57535 | 109.59841 | 26457 ft | 489 kts | 7° |
| 2026-04-20 20:51 | 23.60835 | 109.60502 | 26455 ft | 489 kts | 7° |
| 2026-04-20 20:51 | 23.64224 | 109.61182 | 26459 ft | 489 kts | 7° |
| 2026-04-20 20:51 | 23.67524 | 109.61845 | 26458 ft | 489 kts | 7° |
| 2026-04-20 20:51 | 23.70869 | 109.62514 | 26455 ft | 489 kts | 7° |
| 2026-04-20 20:52 | 23.74211 | 109.63188 | 26471 ft | 489 kts | 7° |
| 2026-04-20 20:52 | 23.77561 | 109.63864 | 26463 ft | 489 kts | 7° |
| 2026-04-20 20:52 | 23.80909 | 109.64535 | 26462 ft | 489 kts | 7° |
| 2026-04-20 20:52 | 23.84263 | 109.65204 | 26459 ft | 489 kts | 7° |
| 2026-04-20 20:53 | 23.87611 | 109.65871 | 26460 ft | 490 kts | 7° |
| 2026-04-20 20:53 | 23.90960 | 109.66533 | 26461 ft | 490 kts | 7° |
| 2026-04-20 20:53 | 23.94320 | 109.67199 | 26458 ft | 490 kts | 7° |
| 2026-04-20 20:53 | 23.97672 | 109.67867 | 26462 ft | 490 kts | 7° |
| 2026-04-20 20:54 | 24.01025 | 109.68546 | 26464 ft | 490 kts | 7° |
| 2026-04-20 20:54 | 24.04382 | 109.69225 | 26460 ft | 490 kts | 7° |
| 2026-04-20 20:54 | 24.07738 | 109.69897 | 26453 ft | 489 kts | 7° |
| 2026-04-20 20:54 | 24.11080 | 109.70568 | 26456 ft | 489 kts | 7° |
| 2026-04-20 20:55 | 24.14385 | 109.71233 | 26461 ft | 488 kts | 7° |
| 2026-04-20 20:55 | 24.17724 | 109.71895 | 26461 ft | 488 kts | 7° |
| 2026-04-20 20:55 | 24.21068 | 109.72563 | 26459 ft | 488 kts | 7° |
| 2026-04-20 20:55 | 24.24406 | 109.73233 | 26454 ft | 488 kts | 7° |
| 2026-04-20 20:56 | 24.27753 | 109.73906 | 26460 ft | 488 kts | 7° |
| 2026-04-20 20:56 | 24.31091 | 109.74580 | 26461 ft | 488 kts | 7° |
| 2026-04-20 20:56 | 24.34432 | 109.75255 | 26467 ft | 488 kts | 7° |
| 2026-04-20 20:56 | 24.37770 | 109.75928 | 26464 ft | 488 kts | 7° |
| 2026-04-20 20:57 | 24.41112 | 109.76603 | 26460 ft | 488 kts | 7° |
| 2026-04-20 20:57 | 24.44458 | 109.77278 | 26464 ft | 488 kts | 7° |
| 2026-04-20 20:57 | 24.47801 | 109.77953 | 26461 ft | 489 kts | 7° |
| 2026-04-20 20:57 | 24.51153 | 109.78630 | 26461 ft | 489 kts | 7° |
| 2026-04-20 20:58 | 24.54496 | 109.79306 | 26465 ft | 488 kts | 7° |
| 2026-04-20 20:58 | 24.57843 | 109.79983 | 26467 ft | 489 kts | 7° |
| 2026-04-20 20:58 | 24.61193 | 109.80652 | 26491 ft | 490 kts | 7° |
| 2026-04-20 20:58 | 24.64541 | 109.81364 | 26470 ft | 492 kts | 10° |
| 2026-04-20 20:59 | 24.67765 | 109.82487 | 26484 ft | 494 kts | 19° |
| 2026-04-20 20:59 | 24.70870 | 109.84124 | 26473 ft | 497 kts | 28° |
| 2026-04-20 20:59 | 24.73771 | 109.86214 | 26489 ft | 498 kts | 32° |
| 2026-04-20 20:59 | 24.76623 | 109.88380 | 26485 ft | 498 kts | 32° |
| 2026-04-20 21:00 | 24.79469 | 109.90555 | 26489 ft | 498 kts | 32° |
| 2026-04-20 21:00 | 24.82322 | 109.92722 | 26485 ft | 498 kts | 32° |
| 2026-04-20 21:00 | 24.85182 | 109.94875 | 26491 ft | 498 kts | 32° |
| 2026-04-20 21:00 | 24.88048 | 109.97017 | 26507 ft | 498 kts | 31° |
| 2026-04-20 21:01 | 24.90924 | 109.99153 | 26496 ft | 498 kts | 31° |
| 2026-04-20 21:01 | 24.93802 | 110.01289 | 26498 ft | 499 kts | 31° |
| 2026-04-20 21:01 | 24.96681 | 110.03429 | 26488 ft | 499 kts | 31° |
| 2026-04-20 21:01 | 24.98586 | 110.04846 | 26500 ft | 499 kts | 31° |
| 2026-04-20 21:02 | 25.01471 | 110.06987 | 26488 ft | 499 kts | 31° |
| 2026-04-20 21:02 | 25.04350 | 110.09133 | 26493 ft | 499 kts | 31° |
| 2026-04-20 21:02 | 25.07225 | 110.11280 | 26491 ft | 499 kts | 31° |
| 2026-04-20 21:02 | 25.10102 | 110.13429 | 26492 ft | 499 kts | 31° |
| 2026-04-20 21:03 | 25.12982 | 110.15580 | 26487 ft | 499 kts | 31° |
| 2026-04-20 21:03 | 25.15857 | 110.17728 | 26499 ft | 499 kts | 31° |
| 2026-04-20 21:03 | 25.18732 | 110.19876 | 26497 ft | 499 kts | 31° |
| 2026-04-20 21:03 | 25.21609 | 110.22025 | 26499 ft | 499 kts | 31° |
| 2026-04-20 21:04 | 25.24488 | 110.24171 | 26493 ft | 499 kts | 31° |
| 2026-04-20 21:04 | 25.27368 | 110.26313 | 26493 ft | 499 kts | 31° |
| 2026-04-20 21:04 | 25.30250 | 110.28459 | 26503 ft | 499 kts | 31° |
| 2026-04-20 21:04 | 25.33129 | 110.30603 | 26516 ft | 499 kts | 31° |
| 2026-04-20 21:05 | 25.36011 | 110.32753 | 26519 ft | 499 kts | 31° |
| 2026-04-20 21:05 | 25.38885 | 110.34898 | 26524 ft | 498 kts | 31° |
| 2026-04-20 21:05 | 25.41724 | 110.37019 | 26542 ft | 498 kts | 31° |
| 2026-04-20 21:05 | 25.44602 | 110.39163 | 26537 ft | 498 kts | 31° |
| 2026-04-20 21:06 | 25.47486 | 110.41288 | 26535 ft | 498 kts | 30° |
| 2026-04-20 21:06 | 25.50369 | 110.43404 | 26530 ft | 498 kts | 30° |
| 2026-04-20 21:06 | 25.53256 | 110.45526 | 26540 ft | 498 kts | 30° |
| 2026-04-20 21:06 | 25.56139 | 110.47651 | 26546 ft | 498 kts | 30° |
| 2026-04-20 21:07 | 25.59040 | 110.49741 | 26543 ft | 497 kts | 29° |
| 2026-04-20 21:07 | 25.61971 | 110.51763 | 26552 ft | 497 kts | 28° |
| 2026-04-20 21:07 | 25.64921 | 110.53773 | 26546 ft | 496 kts | 28° |
| 2026-04-20 21:07 | 25.67858 | 110.55780 | 26569 ft | 496 kts | 28° |
| 2026-04-20 21:08 | 25.70785 | 110.57820 | 26572 ft | 497 kts | 29° |
| 2026-04-20 21:08 | 25.73718 | 110.59870 | 26551 ft | 498 kts | 28° |
| 2026-04-20 21:08 | 25.76662 | 110.61886 | 26560 ft | 498 kts | 27° |
| 2026-04-20 21:08 | 25.79620 | 110.63884 | 26568 ft | 498 kts | 27° |
| 2026-04-20 21:09 | 25.82584 | 110.65871 | 26558 ft | 498 kts | 27° |
| 2026-04-20 21:09 | 25.85503 | 110.67839 | 26567 ft | 497 kts | 27° |
| 2026-04-20 21:09 | 25.88459 | 110.69841 | 26560 ft | 498 kts | 28° |
| 2026-04-20 21:09 | 25.91412 | 110.71845 | 26561 ft | 497 kts | 28° |
| 2026-04-20 21:10 | 25.94364 | 110.73852 | 26579 ft | 497 kts | 27° |
| 2026-04-20 21:10 | 25.97317 | 110.75860 | 26576 ft | 498 kts | 27° |
| 2026-04-20 21:10 | 26.00273 | 110.77869 | 26558 ft | 498 kts | 27° |
| 2026-04-20 21:10 | 26.03227 | 110.79878 | 26566 ft | 497 kts | 27° |
| 2026-04-20 21:11 | 26.06178 | 110.81886 | 26577 ft | 496 kts | 27° |
| 2026-04-20 21:11 | 26.09127 | 110.83878 | 26584 ft | 496 kts | 27° |
| 2026-04-20 21:11 | 26.12082 | 110.85874 | 26582 ft | 498 kts | 27° |
| 2026-04-20 21:11 | 26.15041 | 110.87884 | 26580 ft | 499 kts | 28° |
| 2026-04-20 21:12 | 26.18001 | 110.89897 | 26571 ft | 499 kts | 27° |
| 2026-04-20 21:12 | 26.20961 | 110.91913 | 26570 ft | 498 kts | 27° |
| 2026-04-20 21:12 | 26.23916 | 110.93921 | 26574 ft | 498 kts | 27° |
| 2026-04-20 21:12 | 26.26873 | 110.95926 | 26588 ft | 498 kts | 27° |
| 2026-04-20 21:13 | 26.29832 | 110.97932 | 26579 ft | 498 kts | 27° |
| 2026-04-20 21:13 | 26.32796 | 110.99944 | 26592 ft | 499 kts | 27° |
| 2026-04-20 21:13 | 26.35763 | 111.01960 | 26580 ft | 500 kts | 27° |
| 2026-04-20 21:13 | 26.38736 | 111.03979 | 26581 ft | 499 kts | 27° |
| 2026-04-20 21:14 | 26.41664 | 111.05970 | 26595 ft | 500 kts | 27° |
| 2026-04-20 21:14 | 26.44672 | 111.08018 | 26579 ft | 500 kts | 27° |
| 2026-04-20 21:14 | 26.47603 | 111.10014 | 26586 ft | 500 kts | 27° |
| 2026-04-20 21:14 | 26.50572 | 111.12039 | 26592 ft | 501 kts | 27° |
| 2026-04-20 21:15 | 26.53551 | 111.14067 | 26591 ft | 501 kts | 28° |
| 2026-04-20 21:15 | 26.56524 | 111.16093 | 26582 ft | 500 kts | 27° |
| 2026-04-20 21:15 | 26.59495 | 111.18126 | 26580 ft | 500 kts | 28° |
| 2026-04-20 21:15 | 26.62429 | 111.20218 | 26581 ft | 500 kts | 29° |
| 2026-04-20 21:16 | 26.65342 | 111.22358 | 26589 ft | 500 kts | 30° |
| 2026-04-20 21:16 | 26.68238 | 111.24511 | 26590 ft | 500 kts | 30° |
| 2026-04-20 21:16 | 26.71136 | 111.26662 | 26588 ft | 500 kts | 30° |
| 2026-04-20 21:16 | 26.74039 | 111.28802 | 26582 ft | 499 kts | 30° |
| 2026-04-20 21:17 | 26.76944 | 111.30934 | 26598 ft | 499 kts | 30° |
| 2026-04-20 21:17 | 26.79854 | 111.33063 | 26577 ft | 499 kts | 30° |
| 2026-04-20 21:17 | 26.82762 | 111.35188 | 26586 ft | 499 kts | 29° |
| 2026-04-20 21:17 | 26.85664 | 111.37309 | 26587 ft | 499 kts | 29° |
| 2026-04-20 21:18 | 26.88568 | 111.39435 | 26595 ft | 499 kts | 30° |
| 2026-04-20 21:18 | 26.91436 | 111.41539 | 26594 ft | 499 kts | 30° |
| 2026-04-20 21:18 | 26.94363 | 111.43620 | 26578 ft | 498 kts | 27° |
| 2026-04-20 21:18 | 26.97341 | 111.45594 | 26600 ft | 497 kts | 26° |
| 2026-04-20 21:19 | 27.00336 | 111.47522 | 26598 ft | 497 kts | 26° |
| 2026-04-20 21:19 | 27.03337 | 111.49451 | 26593 ft | 497 kts | 26° |
| 2026-04-20 21:19 | 27.06333 | 111.51396 | 26593 ft | 498 kts | 26° |
| 2026-04-20 21:20 | 27.12306 | 111.55331 | 26588 ft | 498 kts | 26° |
| 2026-04-20 21:20 | 27.15296 | 111.57311 | 26591 ft | 498 kts | 26° |
| 2026-04-20 21:20 | 27.18293 | 111.59300 | 26588 ft | 499 kts | 27° |
| 2026-04-20 21:20 | 27.21261 | 111.61318 | 26588 ft | 499 kts | 27° |
| 2026-04-20 21:21 | 27.24220 | 111.63367 | 26602 ft | 500 kts | 27° |
| 2026-04-20 21:21 | 27.27174 | 111.65428 | 26592 ft | 500 kts | 28° |
| 2026-04-20 21:21 | 27.30088 | 111.67463 | 26597 ft | 500 kts | 27° |
| 2026-04-20 21:21 | 27.33042 | 111.69522 | 26592 ft | 499 kts | 27° |
| 2026-04-20 21:22 | 27.35998 | 111.71577 | 26589 ft | 499 kts | 27° |
| 2026-04-20 21:22 | 27.38954 | 111.73629 | 26592 ft | 499 kts | 27° |
| 2026-04-20 21:22 | 27.41907 | 111.75680 | 26589 ft | 499 kts | 27° |
| 2026-04-20 21:22 | 27.44868 | 111.77737 | 26593 ft | 499 kts | 27° |
| 2026-04-20 21:23 | 27.47821 | 111.79789 | 26604 ft | 498 kts | 27° |
| 2026-04-20 21:23 | 27.50835 | 111.81691 | 26586 ft | 494 kts | 21° |
| 2026-04-20 21:23 | 27.54011 | 111.83120 | 26595 ft | 490 kts | 15° |
| 2026-04-20 21:23 | 27.57223 | 111.84393 | 26592 ft | 489 kts | 15° |
| 2026-04-20 21:24 | 27.60435 | 111.85657 | 26596 ft | 489 kts | 15° |
| 2026-04-20 21:24 | 27.63639 | 111.86949 | 26591 ft | 489 kts | 15° |
| 2026-04-20 21:24 | 27.66834 | 111.88271 | 26590 ft | 489 kts | 16° |
| 2026-04-20 21:24 | 27.70024 | 111.89611 | 26592 ft | 489 kts | 16° |
| 2026-04-20 21:25 | 27.73208 | 111.90955 | 26596 ft | 488 kts | 16° |
| 2026-04-20 21:25 | 27.76391 | 111.92296 | 26606 ft | 488 kts | 16° |
| 2026-04-20 21:25 | 27.79511 | 111.93841 | 25938 ft | 494 kts | 26° |
| 2026-04-20 21:25 | 27.82331 | 111.96101 | 25082 ft | 500 kts | 38° |
| 2026-04-20 21:26 | 27.84689 | 111.98931 | 24299 ft | 504 kts | 50° |
| 2026-04-20 21:26 | 27.86629 | 112.02222 | 23598 ft | 502 kts | 56° |
| 2026-04-20 21:26 | 27.88463 | 112.05561 | 22783 ft | 498 kts | 56° |
| 2026-04-20 21:26 | 27.90290 | 112.08863 | 22062 ft | 492 kts | 56° |
| 2026-04-20 21:27 | 27.92127 | 112.12116 | 21358 ft | 487 kts | 55° |
| 2026-04-20 21:27 | 27.93960 | 112.15312 | 20683 ft | 482 kts | 55° |
| 2026-04-20 21:27 | 27.95780 | 112.18470 | 20014 ft | 477 kts | 55° |
| 2026-04-20 21:27 | 27.97477 | 112.21673 | 19321 ft | 474 kts | 63° |
| 2026-04-20 21:28 | 27.98579 | 112.25172 | 18711 ft | 471 kts | 76° |
| 2026-04-20 21:28 | 27.99070 | 112.28822 | 18012 ft | 468 kts | 87° |
| 2026-04-20 21:28 | 27.98968 | 112.32472 | 17318 ft | 463 kts | 96° |
| 2026-04-20 21:28 | 27.98677 | 112.36070 | 16740 ft | 455 kts | 96° |
| 2026-04-20 21:29 | 27.98411 | 112.39640 | 16060 ft | 452 kts | 95° |
| 2026-04-20 21:29 | 27.98173 | 112.43155 | 15345 ft | 449 kts | 95° |
| 2026-04-20 21:29 | 27.97954 | 112.46602 | 14909 ft | 439 kts | 95° |
| 2026-04-20 21:29 | 27.97738 | 112.50067 | 14107 ft | 441 kts | 95° |
| 2026-04-20 21:30 | 27.97525 | 112.53482 | 13565 ft | 433 kts | 95° |
| 2026-04-20 21:30 | 27.97310 | 112.56888 | 12882 ft | 431 kts | 95° |
| 2026-04-20 21:30 | 27.97096 | 112.60241 | 12124 ft | 429 kts | 95° |
| 2026-04-20 21:30 | 27.96883 | 112.63584 | 11689 ft | 421 kts | 95° |
| 2026-04-20 21:31 | 27.96677 | 112.66861 | 11287 ft | 412 kts | 95° |
| 2026-04-20 21:31 | 27.96476 | 112.70049 | 11054 ft | 400 kts | 95° |
| 2026-04-20 21:31 | 27.96281 | 112.73135 | 10876 ft | 387 kts | 95° |
| 2026-04-20 21:31 | 27.96091 | 112.76130 | 10705 ft | 376 kts | 96° |
| 2026-04-20 21:32 | 27.95904 | 112.79045 | 10537 ft | 366 kts | 95° |
| 2026-04-20 21:32 | 27.95723 | 112.81874 | 10388 ft | 356 kts | 96° |
| 2026-04-20 21:32 | 27.95547 | 112.84601 | 10245 ft | 348 kts | 96° |
| 2026-04-20 21:32 | 27.95373 | 112.87293 | 10107 ft | 339 kts | 96° |
| 2026-04-20 21:33 | 27.95203 | 112.89927 | 9960 ft | 332 kts | 96° |
| 2026-04-20 21:33 | 27.95120 | 112.92492 | 9947 ft | 321 kts | 90° |
| 2026-04-20 21:33 | 27.95196 | 112.94970 | 9905 ft | 311 kts | 89° |
| 2026-04-20 21:33 | 27.95283 | 112.97383 | 9777 ft | 304 kts | 89° |
| 2026-04-20 21:34 | 27.95356 | 112.99767 | 9506 ft | 303 kts | 89° |
| 2026-04-20 21:34 | 27.95366 | 113.02155 | 9225 ft | 301 kts | 97° |
| 2026-04-20 21:34 | 27.95066 | 113.04475 | 9084 ft | 294 kts | 102° |
| 2026-04-20 21:34 | 27.94706 | 113.06726 | 9000 ft | 287 kts | 102° |
| 2026-04-20 21:35 | 27.94372 | 113.08919 | 8942 ft | 278 kts | 102° |
| 2026-04-20 21:35 | 27.94056 | 113.11101 | 8299 ft | 289 kts | 102° |
| 2026-04-20 21:35 | 27.93766 | 113.13376 | 7643 ft | 294 kts | 96° |
| 2026-04-20 21:35 | 27.93791 | 113.15730 | 6558 ft | 310 kts | 88° |
| 2026-04-20 21:36 | 27.93965 | 113.18150 | 5980 ft | 301 kts | 85° |
| 2026-04-20 21:36 | 27.94622 | 113.20393 | 4983 ft | 306 kts | 57° |
| 2026-04-20 21:36 | 27.96088 | 113.22075 | 4340 ft | 296 kts | 33° |
| 2026-04-20 21:36 | 27.97836 | 113.22975 | 4401 ft | 263 kts | 16° |
| 2026-04-20 21:37 | 27.99576 | 113.23197 | 4269 ft | 243 kts | 358° |
| 2026-04-20 21:37 | 28.01202 | 113.23105 | 4140 ft | 226 kts | 356° |
| 2026-04-20 21:37 | 28.02717 | 113.22995 | 4005 ft | 212 kts | 357° |
| 2026-04-20 21:37 | 28.04162 | 113.22897 | 3757 ft | 205 kts | 358° |
| 2026-04-20 21:38 | 28.05575 | 113.22805 | 3448 ft | 202 kts | 359° |
| 2026-04-20 21:38 | 28.06979 | 113.22717 | 3084 ft | 202 kts | 359° |
| 2026-04-20 21:38 | 28.08351 | 113.22631 | 2827 ft | 190 kts | 359° |
| 2026-04-20 21:38 | 28.09614 | 113.22550 | 2564 ft | 176 kts | 358° |
| 2026-04-20 21:39 | 28.10826 | 113.22502 | 2126 ft | 175 kts | 4° |
| 2026-04-20 21:39 | 28.12046 | 113.22663 | 1606 ft | 173 kts | 4° |
| 2026-04-20 21:39 | 28.13203 | 113.22724 | 1218 ft | 160 kts | 358° |
| 2026-04-20 21:39 | 28.14272 | 113.22642 | 876 ft | 149 kts | 352° |
| 2026-04-20 21:40 | 28.15304 | 113.22575 | 651 ft | 149 kts | 356° |
| 2026-04-20 21:40 | 28.16349 | 113.22519 | 433 ft | 151 kts | 354° |
| 2026-04-20 21:40 | 28.17380 | 113.22457 | 281 ft | 149 kts | 357° |
| 2026-04-20 21:40 | 28.18391 | 113.22395 | 217 ft | 134 kts | 356° |
| 2026-04-20 21:41 | 28.19170 | 113.22346 | 214 ft | 90 kts | 358° |
| 2026-04-20 21:41 | 28.19498 | 113.22306 | 217 ft | 34 kts | 337° |
| 2026-04-20 21:41 | 28.19649 | 113.22189 | 214 ft | 21 kts | 291° |
| 2026-04-20 21:41 | 28.19582 | 113.22131 | 216 ft | 14 kts | 176° |
| 2026-04-20 21:42 | 28.19490 | 113.22138 | 216 ft | 13 kts | 173° |
| 2026-04-20 21:42 | 28.19401 | 113.22142 | 217 ft | 13 kts | 178° |
| 2026-04-20 21:42 | 28.19295 | 113.22149 | 217 ft | 18 kts | 176° |
| 2026-04-20 21:42 | 28.19171 | 113.22156 | 217 ft | 18 kts | 177° |
| 2026-04-20 21:43 | 28.19051 | 113.22164 | 217 ft | 17 kts | 177° |
| 2026-04-20 21:43 | 28.18935 | 113.22171 | 218 ft | 16 kts | 176° |
| 2026-04-20 21:43 | 28.18823 | 113.22178 | 214 ft | 16 kts | 172° |
| 2026-04-20 21:43 | 28.18717 | 113.22191 | 217 ft | 15 kts | 172° |
| 2026-04-20 21:44 | 28.18615 | 113.22189 | 214 ft | 14 kts | 175° |
| 2026-04-20 21:44 | 28.18516 | 113.22197 | 220 ft | 14 kts | 176° |
| 2026-04-20 21:44 | 28.18427 | 113.22177 | 214 ft | 13 kts | 170° |
| 2026-04-20 21:44 | 28.18308 | 113.22205 | 217 ft | 20 kts | 170° |
| 2026-04-20 21:45 | 28.18174 | 113.22217 | 217 ft | 19 kts | 176° |
| 2026-04-20 21:45 | 28.18070 | 113.22197 | 221 ft | 8 kts | 254° |
| 2026-04-20 21:45 | 28.18065 | 113.22144 | 218 ft | 0 kts | 266° |
| 2026-04-20 21:45 | 28.18065 | 113.22142 | 216 ft | 3 kts | 266° |
| 2026-04-20 21:46 | 28.18068 | 113.22052 | 216 ft | 15 kts | 282° |
| 2026-04-20 21:46 | 28.18093 | 113.21943 | 214 ft | 14 kts | 269° |
| 2026-04-20 21:46 | 28.18106 | 113.21838 | 219 ft | 14 kts | 318° |
| 2026-04-20 21:46 | 28.18196 | 113.21833 | 217 ft | 13 kts | 356° |
| 2026-04-20 21:47 | 28.18285 | 113.21828 | 213 ft | 13 kts | 358° |
| 2026-04-20 21:47 | 28.18372 | 113.21823 | 213 ft | 12 kts | 356° |
| 2026-04-20 21:47 | 28.18457 | 113.21817 | 217 ft | 12 kts | 357° |
| 2026-04-20 21:47 | 28.18539 | 113.21812 | 217 ft | 12 kts | 356° |
| 2026-04-20 21:48 | 28.18605 | 113.21809 | 213 ft | 0 kts | 358° |
| 2026-04-20 21:48 | 28.18606 | 113.21809 | 213 ft | 0 kts | 358° |
| 2026-04-20 21:48 | 28.18649 | 113.21798 | 216 ft | 9 kts | 321° |
| 2026-04-20 21:48 | 28.18658 | 113.21730 | 215 ft | 10 kts | 272° |
| 2026-04-20 21:49 | 28.18715 | 113.21691 | 215 ft | 10 kts | 354° |
| 2026-04-20 21:49 | 28.18743 | 113.21672 | 215 ft | 5 kts | 296° |
| 2026-04-20 21:49 | 28.18744 | 113.21617 | 217 ft | 6 kts | 270° |
| 2026-04-20 21:49 | 28.18743 | 113.21600 | 212 ft | 0 kts | 267° |
| 2026-04-20 21:50 | 28.18743 | 113.21598 | 212 ft | 0 kts | 267° |